Time;durP1;ratioP1;P1;durP2;ratioP2;P2;SDS_P1;SDS_P2;PMS_P1;PMS_P2;Temp;Humidity;BMP_temperature;BMP_pressure;BME280_temperature;BME280_humidity;BME280_pressure;Samples;Min_cycle;Max_cycle;Signal;HPM_P1;HPM_P2
2024/02/01 00:00:10;;;;;;;9.77;7.37;;;8.90;99.90;;;;;;5062011;28;20713;-72
2024/02/01 00:02:35;;;;;;;9.33;7.17;;;8.90;99.90;;;;;;5074438;28;20209;-72
2024/02/01 00:05:01;;;;;;;7.00;6.33;;;8.90;99.90;;;;;;5075013;28;20190;-72
2024/02/01 00:07:27;;;;;;;7.93;6.70;;;8.90;99.90;;;;;;5074483;28;20217;-71
2024/02/01 00:09:52;;;;;;;8.37;6.77;;;8.90;99.90;;;;;;5074727;28;20197;-73
2024/02/01 00:12:19;;;;;;;7.33;6.63;;;8.90;99.90;;;;;;5074591;28;20255;-71
2024/02/01 00:14:44;;;;;;;8.53;7.50;;;9.00;99.90;;;;;;5066567;28;20210;-74
2024/02/01 00:17:10;;;;;;;12.37;7.30;;;9.00;99.90;;;;;;5054683;28;20265;-73
2024/02/01 00:19:36;;;;;;;8.50;7.23;;;9.00;99.90;;;;;;5054602;28;20258;-73
2024/02/01 00:22:01;;;;;;;8.33;7.53;;;9.00;99.90;;;;;;5036681;28;20277;-73
2024/02/01 00:24:27;;;;;;;9.40;7.53;;;9.10;99.90;;;;;;5054327;28;20193;-74
2024/02/01 00:26:53;;;;;;;8.93;8.13;;;9.10;99.90;;;;;;5036822;28;20712;-71
2024/02/01 00:29:18;;;;;;;11.80;7.60;;;9.10;99.90;;;;;;5060750;28;20170;-71
2024/02/01 00:31:44;;;;;;;8.53;7.73;;;9.10;99.90;;;;;;5074382;28;20204;-70
2024/02/01 00:34:09;;;;;;;9.77;6.97;;;9.10;99.90;;;;;;5074594;28;20657;-70
2024/02/01 00:36:35;;;;;;;11.70;7.07;;;9.10;99.90;;;;;;5060536;28;20171;-70
2024/02/01 00:39:01;;;;;;;11.40;7.60;;;9.10;99.90;;;;;;5036520;28;20584;-71
2024/02/01 00:41:26;;;;;;;8.70;6.80;;;9.10;99.90;;;;;;5054115;28;20177;-70
2024/02/01 00:43:52;;;;;;;11.90;7.50;;;9.10;99.90;;;;;;5070566;28;20206;-73
2024/02/01 00:46:18;;;;;;;10.07;7.43;;;9.20;99.90;;;;;;5074565;28;20166;-72
2024/02/01 00:48:43;;;;;;;10.13;7.50;;;9.10;99.90;;;;;;5073002;28;20166;-72
2024/02/01 00:51:09;;;;;;;9.80;7.27;;;9.10;99.90;;;;;;5054156;28;20237;-73
2024/02/01 00:53:35;;;;;;;9.73;7.00;;;9.20;99.90;;;;;;5054378;28;20182;-73
2024/02/01 00:56:01;;;;;;;7.40;6.53;;;9.20;99.90;;;;;;5054396;28;20175;-72
2024/02/01 00:58:26;;;;;;;11.43;7.27;;;9.20;99.90;;;;;;5054426;28;20269;-72
2024/02/01 01:00:52;;;;;;;10.73;7.90;;;9.20;99.90;;;;;;5054383;28;20178;-74
2024/02/01 01:03:17;;;;;;;7.43;6.67;;;9.20;99.90;;;;;;5054283;28;20285;-72
2024/02/01 01:05:44;;;;;;;7.70;6.90;;;9.20;99.90;;;;;;5074066;28;20258;-70
2024/02/01 01:08:09;;;;;;;13.30;7.97;;;9.20;99.90;;;;;;5074976;28;20177;-72
2024/02/01 01:10:35;;;;;;;12.03;7.83;;;9.20;99.90;;;;;;5075157;28;20785;-72
2024/02/01 01:13:01;;;;;;;8.13;7.30;;;9.20;99.90;;;;;;5073723;28;20174;-73
2024/02/01 01:15:26;;;;;;;7.67;6.87;;;9.20;99.90;;;;;;5047518;28;20195;-74
2024/02/01 01:17:52;;;;;;;11.07;7.20;;;9.10;99.90;;;;;;5053530;28;20277;-73
2024/02/01 01:20:18;;;;;;;8.20;7.37;;;9.00;99.90;;;;;;5053723;28;20256;-73
2024/02/01 01:22:43;;;;;;;9.93;7.63;;;8.90;99.90;;;;;;5053235;28;20245;-73
2024/02/01 01:25:09;;;;;;;8.73;7.17;;;8.80;99.90;;;;;;5053818;28;20198;-73
2024/02/01 01:27:34;;;;;;;8.83;8.03;;;8.60;99.90;;;;;;5053494;28;20181;-73
2024/02/01 01:30:00;;;;;;;7.83;6.93;;;8.40;99.90;;;;;;5059298;28;20166;-72
2024/02/01 01:32:26;;;;;;;7.63;6.80;;;8.40;99.90;;;;;;5073168;28;20174;-71
2024/02/01 01:34:51;;;;;;;9.77;8.47;;;8.30;99.90;;;;;;5073027;28;20236;-73
2024/02/01 01:37:17;;;;;;;10.53;8.17;;;8.30;99.90;;;;;;5073150;28;20166;-73
2024/02/01 01:39:42;;;;;;;9.67;8.67;;;8.20;99.90;;;;;;5073216;28;20173;-73
2024/02/01 01:42:08;;;;;;;14.10;9.10;;;8.20;99.90;;;;;;5073015;28;20201;-75
2024/02/01 01:44:33;;;;;;;9.10;8.00;;;8.20;99.90;;;;;;5056206;28;20190;-73
2024/02/01 01:46:59;;;;;;;12.53;8.60;;;8.20;99.90;;;;;;5053320;28;20174;-72
2024/02/01 01:49:25;;;;;;;10.47;9.47;;;8.20;99.90;;;;;;5052578;28;20186;-74
2024/02/01 01:51:51;;;;;;;10.80;9.63;;;8.20;99.90;;;;;;5052703;28;20178;-74
2024/02/01 01:54:21;;;;;;;11.57;10.00;;;8.20;99.90;;;;;;5053185;28;20652;-74
2024/02/01 01:56:48;;;;;;;11.53;10.13;;;8.20;99.90;;;;;;5052853;28;20201;-74
2024/02/01 01:59:16;;;;;;;10.07;9.00;;;8.10;99.90;;;;;;5035386;28;20540;-74
2024/02/01 02:01:45;;;;;;;10.63;9.47;;;8.10;99.90;;;;;;5052937;28;20171;-74
2024/02/01 02:04:15;;;;;;;12.03;9.87;;;8.20;99.90;;;;;;5053378;28;20255;-74
2024/02/01 02:06:42;;;;;;;11.07;9.27;;;8.10;99.90;;;;;;5053451;28;20634;-74
2024/02/01 02:09:12;;;;;;;13.13;9.43;;;8.20;99.90;;;;;;5053671;28;20166;-74
2024/02/01 02:11:43;;;;;;;12.57;9.50;;;8.10;99.90;;;;;;5061418;28;20182;-74
2024/02/01 02:14:16;;;;;;;12.07;10.87;;;8.10;99.90;;;;;;5072608;28;20200;-74
2024/02/01 02:16:42;;;;;;;14.40;10.30;;;8.10;99.90;;;;;;5072287;28;20564;-72
2024/02/01 02:19:11;;;;;;;12.33;10.77;;;8.10;99.90;;;;;;5072386;28;20565;-73
2024/02/01 02:21:47;;;;;;;13.00;10.63;;;8.10;99.90;;;;;;5054247;28;20170;-74
2024/02/01 02:24:19;;;;;;;13.53;10.27;;;8.10;99.90;;;;;;5054200;28;20202;-74
2024/02/01 02:26:46;;;;;;;15.20;11.67;;;8.10;99.90;;;;;;5060248;28;20266;-74
2024/02/01 02:29:15;;;;;;;14.53;10.10;;;8.00;99.90;;;;;;5052285;28;20646;-75
2024/02/01 02:31:46;;;;;;;15.97;11.43;;;8.00;99.90;;;;;;5063305;28;20178;-73
2024/02/01 02:34:12;;;;;;;12.57;10.80;;;8.10;99.90;;;;;;5077495;28;20295;-74
2024/02/01 02:36:37;;;;;;;11.93;10.73;;;8.00;99.90;;;;;;5072099;28;20166;-75
2024/02/01 02:39:03;;;;;;;11.27;9.87;;;8.00;99.90;;;;;;5071284;28;20252;-75
2024/02/01 02:41:29;;;;;;;12.57;11.17;;;8.00;99.90;;;;;;5035098;28;20179;-74
2024/02/01 02:43:56;;;;;;;13.13;11.40;;;8.00;99.90;;;;;;5051729;28;20533;-74
2024/02/01 02:46:24;;;;;;;14.43;11.33;;;8.00;99.90;;;;;;5060680;28;20169;-73
2024/02/01 02:48:49;;;;;;;14.03;12.10;;;8.00;99.90;;;;;;5071595;28;20658;-74
2024/02/01 02:51:16;;;;;;;13.03;11.33;;;8.00;99.90;;;;;;5061612;28;20175;-74
2024/02/01 02:53:42;;;;;;;14.13;11.00;;;8.10;99.90;;;;;;5051103;28;20558;-74
2024/02/01 02:56:08;;;;;;;11.53;10.20;;;8.10;99.90;;;;;;5034039;28;20175;-75
2024/02/01 02:58:37;;;;;;;15.40;11.37;;;8.10;99.90;;;;;;5051503;28;20171;-74
2024/02/01 03:01:05;;;;;;;11.83;10.63;;;8.10;99.90;;;;;;5051518;28;20186;-74
2024/02/01 03:03:32;;;;;;;16.03;11.03;;;8.10;99.90;;;;;;5033454;28;20206;-74
2024/02/01 03:05:58;;;;;;;17.30;11.80;;;8.10;99.90;;;;;;5060289;28;20649;-73
2024/02/01 03:08:24;;;;;;;13.07;11.63;;;8.10;99.90;;;;;;5071584;28;20169;-74
2024/02/01 03:10:50;;;;;;;14.53;11.43;;;8.20;99.90;;;;;;5071183;28;20170;-75
2024/02/01 03:13:16;;;;;;;15.87;11.97;;;8.20;99.90;;;;;;5071876;28;20162;-75
2024/02/01 03:15:42;;;;;;;15.97;11.47;;;8.20;99.90;;;;;;5071481;28;20250;-75
2024/02/01 03:18:10;;;;;;;12.50;11.03;;;8.10;99.90;;;;;;5071554;28;20185;-74
2024/02/01 03:20:36;;;;;;;14.37;11.20;;;8.20;99.90;;;;;;5063096;28;20229;-74
2024/02/01 03:23:05;;;;;;;13.87;10.80;;;8.20;99.90;;;;;;5051188;28;20245;-74
2024/02/01 03:25:32;;;;;;;14.40;11.83;;;8.20;99.90;;;;;;5051101;28;20214;-74
2024/02/01 03:28:03;;;;;;;12.97;11.57;;;8.20;99.90;;;;;;5051318;28;20186;-74
2024/02/01 03:30:36;;;;;;;12.47;11.00;;;8.20;99.90;;;;;;5033275;28;20690;-74
2024/02/01 03:33:02;;;;;;;13.00;10.60;;;8.30;99.90;;;;;;5052016;28;20197;-74
2024/02/01 03:35:31;;;;;;;15.87;11.27;;;8.20;99.90;;;;;;5073649;28;20186;-74
2024/02/01 03:38:00;;;;;;;16.63;11.53;;;8.20;99.90;;;;;;5075439;28;20653;-75
2024/02/01 03:40:26;;;;;;;15.97;11.67;;;8.20;99.90;;;;;;5075447;28;20205;-74
2024/02/01 03:42:51;;;;;;;13.83;11.60;;;8.30;99.90;;;;;;5075124;28;20703;-74
2024/02/01 03:45:17;;;;;;;12.87;11.33;;;8.30;99.90;;;;;;5075442;28;20657;-75
2024/02/01 03:47:45;;;;;;;13.33;10.77;;;8.30;99.90;;;;;;5074673;28;20249;-74
2024/02/01 03:50:12;;;;;;;13.23;11.93;;;8.30;99.90;;;;;;5055097;28;20262;-74
2024/02/01 03:52:39;;;;;;;16.37;12.13;;;8.20;99.90;;;;;;5055941;28;20320;-74
2024/02/01 03:55:16;;;;;;;11.50;10.30;;;8.30;99.90;;;;;;5059647;28;20273;-74
2024/02/01 03:57:43;;;;;;;16.93;11.97;;;8.30;99.90;;;;;;5057721;28;20178;-74
2024/02/01 04:00:24;;;;;;;16.73;12.47;;;8.30;99.90;;;;;;5055052;28;20293;-74
2024/02/01 04:02:53;;;;;;;14.00;11.13;;;8.30;99.90;;;;;;5070329;28;20260;-74
2024/02/01 04:05:18;;;;;;;16.70;11.63;;;8.30;99.90;;;;;;5074854;28;20200;-75
2024/02/01 04:07:44;;;;;;;14.63;12.20;;;8.40;99.90;;;;;;5074713;28;20249;-74
2024/02/01 04:10:10;;;;;;;13.67;12.07;;;8.30;99.90;;;;;;5074775;28;20576;-75
2024/02/01 04:12:36;;;;;;;12.90;11.43;;;8.30;99.90;;;;;;5074409;28;20201;-75
2024/02/01 04:15:02;;;;;;;15.43;13.13;;;8.30;99.90;;;;;;5074595;28;20217;-75
2024/02/01 04:17:28;;;;;;;14.57;12.43;;;8.30;99.90;;;;;;5059826;28;20182;-75
2024/02/01 04:19:53;;;;;;;14.27;12.10;;;8.40;99.90;;;;;;5054485;28;20246;-76
2024/02/01 04:22:22;;;;;;;16.23;12.60;;;8.40;99.90;;;;;;5054390;28;20233;-75
2024/02/01 04:24:47;;;;;;;15.03;11.83;;;8.40;99.90;;;;;;5054513;28;20214;-75
2024/02/01 04:27:13;;;;;;;13.20;11.90;;;8.40;99.90;;;;;;5054546;28;20568;-74
2024/02/01 04:29:39;;;;;;;14.30;12.20;;;8.40;99.90;;;;;;5066942;28;20261;-74
2024/02/01 04:32:05;;;;;;;15.63;12.53;;;8.40;99.90;;;;;;5074251;28;20237;-74
2024/02/01 04:34:31;;;;;;;13.23;11.87;;;8.40;99.90;;;;;;5074214;28;20665;-74
2024/02/01 04:36:57;;;;;;;16.70;12.33;;;8.40;99.90;;;;;;5067490;28;20339;-74
2024/02/01 04:39:22;;;;;;;13.73;10.73;;;8.40;99.90;;;;;;5054968;28;20163;-74
2024/02/01 04:41:53;;;;;;;13.57;12.10;;;8.40;99.90;;;;;;5054436;28;20197;-74
2024/02/01 04:44:20;;;;;;;15.37;12.47;;;8.50;99.90;;;;;;5054125;28;20240;-74
2024/02/01 04:46:46;;;;;;;14.03;11.60;;;8.50;99.90;;;;;;5055971;28;20559;-75
2024/02/01 04:49:11;;;;;;;13.57;12.10;;;8.50;99.90;;;;;;5073903;28;20173;-73
2024/02/01 04:51:39;;;;;;;14.47;12.13;;;8.50;99.90;;;;;;5069927;28;20254;-73
2024/02/01 04:54:06;;;;;;;13.10;10.73;;;8.50;99.90;;;;;;5054004;28;20191;-74
2024/02/01 04:56:32;;;;;;;14.70;12.27;;;8.50;99.90;;;;;;5057091;28;20186;-73
2024/02/01 04:58:58;;;;;;;15.03;12.47;;;8.50;99.90;;;;;;5073806;28;20608;-75
2024/02/01 05:01:25;;;;;;;14.33;12.77;;;8.50;99.90;;;;;;5073686;28;20202;-74
2024/02/01 05:03:50;;;;;;;15.93;13.40;;;8.50;99.90;;;;;;5073490;28;20209;-76
2024/02/01 05:06:20;;;;;;;15.50;13.37;;;8.50;99.90;;;;;;5073852;28;20189;-75
2024/02/01 05:08:46;;;;;;;18.43;13.70;;;8.50;99.90;;;;;;5073899;28;20548;-74
2024/02/01 05:11:11;;;;;;;19.60;13.53;;;8.50;99.90;;;;;;5071142;28;20173;-75
2024/02/01 05:13:38;;;;;;;15.37;13.73;;;8.50;99.90;;;;;;5054010;28;20182;-74
2024/02/01 05:16:04;;;;;;;15.77;13.20;;;8.50;99.90;;;;;;5071564;28;20182;-75
2024/02/01 05:18:29;;;;;;;16.13;13.73;;;8.50;99.90;;;;;;5077701;28;20178;-74
2024/02/01 05:20:55;;;;;;;16.13;13.03;;;8.60;99.90;;;;;;5073333;28;20186;-74
2024/02/01 05:23:21;;;;;;;17.17;13.73;;;8.60;99.90;;;;;;5073443;28;20214;-74
2024/02/01 05:25:47;;;;;;;14.93;13.43;;;8.50;99.90;;;;;;5059372;28;20199;-75
2024/02/01 05:28:13;;;;;;;18.17;13.73;;;8.60;99.90;;;;;;5053459;28;20740;-75
2024/02/01 05:30:42;;;;;;;15.50;13.80;;;8.50;99.90;;;;;;5035689;28;20171;-74
2024/02/01 05:33:08;;;;;;;17.83;13.80;;;8.60;99.90;;;;;;5053286;28;20587;-75
2024/02/01 05:35:34;;;;;;;16.47;14.03;;;8.60;99.90;;;;;;5053527;28;20202;-74
2024/02/01 05:38:00;;;;;;;17.07;15.20;;;8.60;99.90;;;;;;5053059;28;20185;-74
2024/02/01 05:40:27;;;;;;;17.80;15.37;;;8.60;99.90;;;;;;5065753;28;20206;-74
2024/02/01 05:42:53;;;;;;;21.23;16.40;;;8.70;99.90;;;;;;5073006;28;20244;-74
2024/02/01 05:45:19;;;;;;;19.23;15.70;;;8.70;99.90;;;;;;5073338;28;20186;-74
2024/02/01 05:47:45;;;;;;;23.00;17.70;;;8.60;99.90;;;;;;5072937;28;20703;-74
2024/02/01 05:50:14;;;;;;;23.00;16.73;;;8.70;99.90;;;;;;5073156;28;20171;-74
2024/02/01 05:52:41;;;;;;;23.37;17.73;;;8.70;99.90;;;;;;5068698;28;20198;-74
2024/02/01 05:55:09;;;;;;;25.30;18.13;;;8.70;99.90;;;;;;5053137;28;20209;-75
2024/02/01 05:57:35;;;;;;;25.80;19.00;;;8.70;99.90;;;;;;5052477;28;20171;-74
2024/02/01 06:00:04;;;;;;;25.47;17.90;;;8.70;99.90;;;;;;5052975;28;20511;-74
2024/02/01 06:02:30;;;;;;;25.33;18.73;;;8.70;99.90;;;;;;5052864;28;20195;-74
2024/02/01 06:04:56;;;;;;;27.70;18.90;;;8.70;99.90;;;;;;5035029;28;20936;-75
2024/02/01 06:07:22;;;;;;;27.90;19.60;;;8.70;99.90;;;;;;5053677;28;20380;-74
2024/02/01 06:09:47;;;;;;;26.50;19.00;;;8.70;99.90;;;;;;5052895;28;20171;-74
2024/02/01 06:12:13;;;;;;;27.17;17.03;;;8.70;99.90;;;;;;5052685;28;20175;-74
2024/02/01 06:14:39;;;;;;;30.63;20.57;;;8.70;99.90;;;;;;5052759;28;20285;-74
2024/02/01 06:17:04;;;;;;;26.67;20.43;;;8.70;99.90;;;;;;5052825;28;20537;-74
2024/02/01 06:19:30;;;;;;;33.43;22.43;;;8.70;99.90;;;;;;5053981;28;20461;-74
2024/02/01 06:21:56;;;;;;;36.50;22.17;;;8.70;99.90;;;;;;5052246;28;20210;-74
2024/02/01 06:24:21;;;;;;;31.83;22.30;;;8.70;99.90;;;;;;5052591;28;20199;-75
2024/02/01 06:26:47;;;;;;;34.70;22.83;;;8.70;99.90;;;;;;5052799;28;20261;-75
2024/02/01 06:29:13;;;;;;;34.43;22.67;;;8.70;99.90;;;;;;5052609;28;20610;-74
2024/02/01 06:31:39;;;;;;;33.90;22.73;;;8.70;99.90;;;;;;5052153;28;20179;-74
2024/02/01 06:34:06;;;;;;;33.63;22.77;;;8.70;99.90;;;;;;5054510;28;20803;-74
2024/02/01 06:36:35;;;;;;;36.23;23.03;;;8.70;99.90;;;;;;5052868;28;20170;-75
2024/02/01 06:41:48;;;;;;;36.33;22.43;;;8.60;99.90;;;;;;5034092;28;20271;-75
2024/02/01 06:44:21;;;;;;;34.77;23.20;;;8.50;99.90;;;;;;5032079;28;20290;-75
2024/02/01 06:52:13;;;;;;;40.63;22.90;;;8.50;99.90;;;;;;5072443;28;20205;-74
2024/02/01 06:54:50;;;;;;;34.53;22.57;;;8.40;99.90;;;;;;5058491;28;20241;-74
2024/02/01 06:57:22;;;;;;;32.77;22.10;;;8.40;99.90;;;;;;5032672;28;20174;-77
2024/02/01 07:00:17;;;;;;;31.60;21.53;;;8.40;99.90;;;;;;5049043;28;20240;-74
2024/02/01 07:03:01;;;;;;;31.97;20.67;;;8.20;99.90;;;;;;5063950;28;20662;-75
2024/02/01 07:05:58;;;;;;;35.50;20.30;;;8.20;99.90;;;;;;5052113;28;20190;-74
2024/02/01 07:08:13;;;;;;;34.30;20.27;;;8.10;99.90;;;;;;5036302;28;20727;-73
2024/02/01 07:10:47;;;;;;;31.57;19.43;;;7.90;99.90;;;;;;5030718;28;20693;-75
2024/02/01 07:13:44;;;;;;;26.20;17.10;;;7.80;99.90;;;;;;5031638;28;20538;-73
2024/02/01 07:16:21;;;;;;;27.43;16.93;;;7.60;99.90;;;;;;5031319;28;20201;-72
2024/02/01 07:18:56;;;;;;;26.33;16.10;;;7.60;99.90;;;;;;5019382;28;20178;-72
2024/02/01 07:21:31;;;;;;;25.57;15.93;;;7.40;99.90;;;;;;5051505;28;20174;-73
2024/02/01 07:24:07;;;;;;;23.93;15.07;;;7.30;99.90;;;;;;5051591;28;20669;-76
2024/02/01 07:26:43;;;;;;;22.73;17.07;;;7.10;99.90;;;;;;5052061;28;20166;-74
2024/02/01 07:57:36;;;;;;;25.83;16.27;;;6.90;99.90;;;;;;5068650;28;20246;-74
2024/02/01 07:59:28;;;;;;;15.50;7.73;;;6.50;99.90;;;;;;5042062;28;20176;-74
2024/02/01 08:02:13;;;;;;;17.57;7.93;;;6.40;99.90;;;;;;5068462;28;20238;-74
2024/02/01 08:07:48;;;;;;;22.90;7.70;;;6.20;99.90;;;;;;5007876;28;20199;-74
2024/02/01 08:10:18;;;;;;;21.07;6.73;;;6.10;99.90;;;;;;5041630;28;20468;-74
2024/02/01 08:12:45;;;;;;;18.00;6.50;;;5.90;99.90;;;;;;5051089;28;20170;-74
2024/02/01 08:15:18;;;;;;;17.57;7.60;;;5.90;99.90;;;;;;5051101;28;20193;-74
2024/02/01 08:17:48;;;;;;;26.23;6.70;;;5.90;99.90;;;;;;5050888;28;20182;-76
2024/02/01 08:20:14;;;;;;;12.43;6.40;;;6.00;99.90;;;;;;5051340;28;20294;-74
2024/02/01 08:22:41;;;;;;;23.57;8.07;;;6.20;99.90;;;;;;5054488;28;20230;-74
2024/02/01 08:25:13;;;;;;;26.63;7.10;;;6.60;99.90;;;;;;5055693;28;20201;-75
2024/02/01 08:27:55;;;;;;;15.40;5.63;;;6.90;99.90;;;;;;5055553;28;20177;-74
2024/02/01 08:30:27;;;;;;;18.03;6.27;;;7.00;99.90;;;;;;5056554;28;20178;-75
2024/02/01 08:32:53;;;;;;;22.30;6.50;;;7.30;99.90;;;;;;5066985;28;20179;-74
2024/02/01 08:35:19;;;;;;;9.23;4.73;;;7.60;99.90;;;;;;5057636;28;20260;-75
2024/02/01 08:37:45;;;;;;;18.60;5.37;;;7.80;99.90;;;;;;5055563;28;20532;-73
2024/02/01 08:40:20;;;;;;;19.87;5.77;;;7.90;99.90;;;;;;5071895;28;20186;-75
2024/02/01 08:42:57;;;;;;;17.50;5.47;;;8.10;99.90;;;;;;5038375;28;20244;-74
2024/02/01 08:45:27;;;;;;;22.77;5.77;;;8.30;99.90;;;;;;5068455;28;20281;-74
2024/02/01 08:47:53;;;;;;;15.33;5.47;;;8.50;99.90;;;;;;5059696;28;20535;-74
2024/02/01 08:50:19;;;;;;;15.27;5.07;;;8.50;99.90;;;;;;5065022;28;20181;-75
2024/02/01 08:52:47;;;;;;;13.57;4.27;;;8.80;99.90;;;;;;5074508;28;20214;-75
2024/02/01 08:55:17;;;;;;;14.90;5.23;;;9.10;99.90;;;;;;5074041;28;20182;-74
2024/02/01 08:57:44;;;;;;;11.87;4.73;;;9.40;99.90;;;;;;5073848;28;20189;-74
2024/02/01 09:00:31;;;;;;;14.20;5.00;;;9.60;99.90;;;;;;5074859;28;20174;-75
2024/02/01 09:03:11;;;;;;;13.40;5.13;;;9.70;99.90;;;;;;5075375;28;20295;-73
2024/02/01 09:05:36;;;;;;;13.13;4.63;;;9.60;99.90;;;;;;5059499;28;20568;-74
2024/02/01 09:08:12;;;;;;;13.30;4.97;;;9.70;99.90;;;;;;5053643;28;20171;-74
2024/02/01 09:10:50;;;;;;;12.23;4.00;;;9.80;99.90;;;;;;5054375;28;20189;-74
2024/02/01 09:13:22;;;;;;;15.07;4.87;;;9.90;99.90;;;;;;5054624;28;20186;-74
2024/02/01 09:15:48;;;;;;;15.60;4.43;;;10.10;99.90;;;;;;5053868;28;20201;-74
2024/02/01 09:18:13;;;;;;;15.40;5.07;;;10.30;99.90;;;;;;5053847;28;20219;-74
2024/02/01 09:20:39;;;;;;;20.07;5.20;;;10.50;99.90;;;;;;5054055;28;20190;-74
2024/02/01 09:23:05;;;;;;;9.27;4.83;;;10.60;99.90;;;;;;5054596;28;20634;-74
2024/02/01 09:25:31;;;;;;;14.90;4.20;;;10.70;99.90;;;;;;5058500;28;20202;-74
2024/02/01 09:27:58;;;;;;;10.77;4.67;;;10.70;99.90;;;;;;5055597;28;20193;-74
2024/02/01 09:30:26;;;;;;;16.00;4.87;;;10.80;99.90;;;;;;5073890;28;20539;-74
2024/02/01 09:32:55;;;;;;;23.57;4.90;;;10.90;99.90;;;;;;5072125;28;20177;-74
2024/02/01 09:35:22;;;;;;;16.37;4.93;;;10.90;99.90;;;;;;5073300;28;20307;-74
2024/02/01 09:37:54;;;;;;;13.43;4.13;;;10.90;99.90;;;;;;5071340;28;20183;-73
2024/02/01 09:40:20;;;;;;;20.73;5.23;;;10.90;99.90;;;;;;5054237;28;20594;-74
2024/02/01 09:42:51;;;;;;;17.83;5.10;;;11.00;99.90;;;;;;5052915;28;20270;-73
2024/02/01 09:45:28;;;;;;;12.10;3.97;;;10.90;99.90;;;;;;5053001;28;20293;-73
2024/02/01 09:47:55;;;;;;;11.73;3.97;;;10.70;99.90;;;;;;5058334;28;20174;-74
2024/02/01 09:50:21;;;;;;;11.53;4.17;;;10.70;99.90;;;;;;5053068;28;20174;-74
2024/02/01 09:52:49;;;;;;;10.30;4.93;;;10.90;99.90;;;;;;5052933;28;20175;-73
2024/02/01 09:55:17;;;;;;;12.83;4.80;;;11.00;99.90;;;;;;5053127;28;20195;-74
2024/02/01 09:57:45;;;;;;;15.07;4.40;;;11.00;99.90;;;;;;5052628;28;20193;-73
2024/02/01 10:00:22;;;;;;;9.00;4.03;;;11.10;99.90;;;;;;5053078;28;20253;-74
2024/02/01 10:02:55;;;;;;;7.97;4.50;;;11.00;99.90;;;;;;5062322;28;20569;-75
2024/02/01 10:05:24;;;;;;;18.47;4.90;;;11.00;99.90;;;;;;5072817;28;20221;-73
2024/02/01 10:07:52;;;;;;;10.87;4.37;;;11.00;99.90;;;;;;5072483;28;20220;-72
2024/02/01 10:10:20;;;;;;;21.67;4.27;;;11.10;99.90;;;;;;5072642;28;20590;-74
2024/02/01 10:12:46;;;;;;;18.20;4.80;;;11.00;99.90;;;;;;5072458;28;20205;-73
2024/02/01 10:15:19;;;;;;;13.07;4.60;;;11.00;99.90;;;;;;5072368;28;20201;-72
2024/02/01 10:17:51;;;;;;;13.20;4.40;;;11.10;99.90;;;;;;5060690;28;20643;-73
2024/02/01 10:20:33;;;;;;;13.70;4.50;;;11.30;99.90;;;;;;5072298;28;20174;-72
2024/02/01 10:23:10;;;;;;;14.70;5.47;;;11.40;99.90;;;;;;5072250;28;20205;-72
2024/02/01 10:25:39;;;;;;;13.63;4.67;;;11.20;99.90;;;;;;5069215;28;20272;-72
2024/02/01 10:28:08;;;;;;;15.37;5.17;;;11.20;99.90;;;;;;5052164;28;20174;-72
2024/02/01 10:30:41;;;;;;;15.17;5.33;;;11.30;99.90;;;;;;5052627;28;20182;-73
2024/02/01 10:33:07;;;;;;;9.43;4.33;;;11.50;99.90;;;;;;5055523;28;20209;-72
2024/02/01 10:35:34;;;;;;;10.87;4.17;;;11.60;99.90;;;;;;5066703;28;20206;-73
2024/02/01 10:38:01;;;;;;;14.30;5.07;;;11.60;99.90;;;;;;5053187;28;20178;-72
2024/02/01 10:40:39;;;;;;;11.13;4.53;;;11.60;99.90;;;;;;5051902;28;20178;-73
2024/02/01 10:43:06;;;;;;;21.03;5.47;;;11.90;99.90;;;;;;5051701;28;20229;-73
2024/02/01 10:45:36;;;;;;;8.63;4.17;;;11.90;99.90;;;;;;5054431;28;20186;-72
2024/02/01 10:48:09;;;;;;;13.13;4.33;;;12.00;99.90;;;;;;5057746;28;20261;-72
2024/02/01 10:50:39;;;;;;;14.73;4.50;;;12.00;99.90;;;;;;5052434;28;20520;-73
2024/02/01 10:53:07;;;;;;;10.53;4.40;;;12.10;99.90;;;;;;5052103;28;20167;-73
2024/02/01 10:55:38;;;;;;;17.90;5.17;;;12.00;99.90;;;;;;5052188;28;20214;-73
2024/02/01 10:58:04;;;;;;;21.07;4.87;;;12.00;99.90;;;;;;5052097;28;20717;-73
2024/02/01 11:00:31;;;;;;;13.83;4.90;;;12.10;99.90;;;;;;5052218;28;20179;-73
2024/02/01 11:02:58;;;;;;;12.10;4.20;;;12.10;99.90;;;;;;5069731;28;20723;-74
2024/02/01 11:05:29;;;;;;;14.30;4.10;;;11.90;99.90;;;;;;5072087;28;20189;-73
2024/02/01 11:07:55;;;;;;;12.03;3.97;;;11.60;99.90;;;;;;5071746;28;20201;-73
2024/02/01 11:10:23;;;;;;;13.77;4.37;;;11.30;99.90;;;;;;5072016;28;20201;-73
2024/02/01 11:12:54;;;;;;;20.93;4.70;;;11.20;99.90;;;;;;5070122;28;20182;-72
2024/02/01 11:15:24;;;;;;;12.27;4.70;;;11.40;99.90;;;;;;5071630;28;20197;-72
2024/02/01 11:17:50;;;;;;;16.70;5.20;;;11.60;99.90;;;;;;5071668;28;20173;-72
2024/02/01 11:20:21;;;;;;;17.90;5.90;;;11.40;99.90;;;;;;5071733;28;20673;-72
2024/02/01 11:22:55;;;;;;;10.17;4.03;;;11.40;99.90;;;;;;5071354;28;20189;-72
2024/02/01 11:25:28;;;;;;;18.30;5.07;;;11.50;99.90;;;;;;5071351;28;20189;-71
2024/02/01 11:27:57;;;;;;;11.43;4.37;;;11.40;99.90;;;;;;5057011;28;20186;-72
2024/02/01 11:30:26;;;;;;;12.00;4.47;;;11.50;99.90;;;;;;5054139;28;20549;-73
2024/02/01 11:32:52;;;;;;;14.80;5.07;;;11.60;99.90;;;;;;5051707;28;20181;-72
2024/02/01 11:35:17;;;;;;;12.90;4.30;;;11.60;99.90;;;;;;5051182;28;20194;-72
2024/02/01 11:37:43;;;;;;;11.57;4.23;;;11.90;99.90;;;;;;5051560;28;20713;-73
2024/02/01 11:40:15;;;;;;;15.57;4.90;;;12.10;99.90;;;;;;5056653;28;20177;-73
2024/02/01 11:42:41;;;;;;;14.10;4.20;;;11.90;99.90;;;;;;5071938;28;20194;-73
2024/02/01 11:45:08;;;;;;;15.50;4.20;;;11.90;99.90;;;;;;5072117;28;20228;-72
2024/02/01 11:47:35;;;;;;;14.17;4.43;;;12.00;99.90;;;;;;5071816;28;20277;-73
2024/02/01 11:50:01;;;;;;;14.30;4.60;;;12.10;99.90;;;;;;5071395;28;20253;-73
2024/02/01 11:52:33;;;;;;;14.57;4.83;;;12.20;99.90;;;;;;5072446;28;20656;-72
2024/02/01 11:54:58;;;;;;;15.37;4.27;;;12.30;99.90;;;;;;5048825;28;20194;-73
2024/02/01 11:57:30;;;;;;;11.90;4.37;;;12.50;99.90;;;;;;5055357;28;20266;-72
2024/02/01 11:59:56;;;;;;;11.43;4.60;;;12.50;99.90;;;;;;5055452;28;20607;-72
2024/02/01 12:02:26;;;;;;;14.13;4.73;;;12.10;99.90;;;;;;5055469;28;20195;-73
2024/02/01 12:04:52;;;;;;;11.57;4.37;;;11.60;99.90;;;;;;5055976;28;20198;-72
2024/02/01 12:07:18;;;;;;;17.13;5.53;;;11.70;99.90;;;;;;5059143;28;20186;-72
2024/02/01 12:09:47;;;;;;;13.80;4.30;;;11.70;99.90;;;;;;5081236;28;20186;-72
2024/02/01 12:12:23;;;;;;;12.70;4.63;;;11.70;99.90;;;;;;5065507;28;20179;-72
2024/02/01 12:14:50;;;;;;;14.70;5.33;;;11.50;99.90;;;;;;5054596;28;20195;-72
2024/02/01 12:17:16;;;;;;;11.00;4.37;;;11.40;99.90;;;;;;5054242;28;20167;-73
2024/02/01 12:19:46;;;;;;;9.83;4.03;;;11.50;99.90;;;;;;5055885;28;20614;-72
2024/02/01 12:22:12;;;;;;;12.77;4.37;;;11.50;99.90;;;;;;5054594;28;20179;-72
2024/02/01 12:24:38;;;;;;;10.27;4.27;;;11.50;99.90;;;;;;5073562;28;20202;-72
2024/02/01 12:27:11;;;;;;;18.73;5.50;;;11.50;99.90;;;;;;5074563;28;20536;-72
2024/02/01 12:29:37;;;;;;;12.37;4.30;;;11.70;99.90;;;;;;5074834;28;20171;-73
2024/02/01 12:32:04;;;;;;;12.60;4.67;;;11.40;99.90;;;;;;5067642;28;20262;-72
2024/02/01 12:34:31;;;;;;;13.40;4.87;;;11.20;99.90;;;;;;5067139;28;20669;-72
2024/02/01 12:36:57;;;;;;;11.33;3.90;;;11.40;99.90;;;;;;5066299;28;20258;-73
2024/02/01 12:39:23;;;;;;;13.47;4.17;;;11.50;99.90;;;;;;5061619;28;20212;-73
2024/02/01 12:41:49;;;;;;;13.30;4.97;;;11.60;99.90;;;;;;5074372;28;20224;-73
2024/02/01 12:44:16;;;;;;;17.90;4.27;;;11.50;99.90;;;;;;5074361;28;20221;-72
2024/02/01 12:46:43;;;;;;;12.87;3.93;;;11.40;99.90;;;;;;5074190;28;20273;-73
2024/02/01 12:49:12;;;;;;;11.47;4.30;;;11.30;99.90;;;;;;5073906;28;20535;-72
2024/02/01 12:51:42;;;;;;;10.27;4.60;;;10.90;99.90;;;;;;5073893;28;20167;-72
2024/02/01 12:54:09;;;;;;;13.87;4.30;;;10.60;99.90;;;;;;5072511;28;20589;-72
2024/02/01 12:56:36;;;;;;;12.10;4.40;;;10.40;99.90;;;;;;5074202;28;20183;-72
2024/02/01 12:59:04;;;;;;;15.20;5.03;;;10.50;99.90;;;;;;5074045;28;20252;-72
2024/02/01 13:01:33;;;;;;;12.10;4.10;;;10.70;99.90;;;;;;5072608;28;20174;-72
2024/02/01 13:04:00;;;;;;;13.73;4.97;;;11.00;99.90;;;;;;5033898;28;20207;-73
2024/02/01 13:06:26;;;;;;;12.00;4.97;;;11.30;99.90;;;;;;5071216;28;20709;-72
2024/02/01 13:40:18;;;;;;;12.50;5.17;;;8.80;99.90;;;;;;5129240;27;20579;-72
2024/02/01 13:42:44;;;;;;;11.33;5.17;;;9.70;99.90;;;;;;5131258;27;20548;-72
2024/02/01 13:45:10;;;;;;;9.67;4.40;;;9.60;99.90;;;;;;5133194;27;20247;-71
2024/02/01 13:47:36;;;;;;;11.47;4.80;;;9.60;99.90;;;;;;5129498;27;20192;-73
2024/02/01 13:50:02;;;;;;;8.57;4.50;;;9.60;99.90;;;;;;5129310;27;20215;-70
2024/02/01 13:52:28;;;;;;;14.00;4.53;;;9.60;99.90;;;;;;5333742;22;21689;-71
2024/02/01 13:54:54;;;;;;;12.33;4.93;;;9.60;99.90;;;;;;5131111;27;20616;-71